sensor_id;sensor_type;location;lat;lon;timestamp;temperature;humidity
19728;DHT22;10015;52.530;13.390;2022-09-28T04:17:07;10.80;99.90
19728;DHT22;10015;52.530;13.390;2022-09-28T04:19:33;10.90;99.90
19728;DHT22;10015;52.530;13.390;2022-09-28T04:22:26;11.00;99.90
19728;DHT22;10015;52.530;13.390;2022-09-28T04:24:52;11.00;99.90
19728;DHT22;10015;52.530;13.390;2022-09-28T04:27:18;11.10;99.90
19728;DHT22;10015;52.530;13.390;2022-09-28T04:30:04;11.00;99.90
19728;DHT22;10015;52.530;13.390;2022-09-28T04:32:32;11.10;99.90
19728;DHT22;10015;52.530;13.390;2022-09-28T04:34:59;11.00;99.90
19728;DHT22;10015;52.530;13.390;2022-09-28T04:37:25;11.00;99.90
19728;DHT22;10015;52.530;13.390;2022-09-28T04:39:53;11.00;99.90
19728;DHT22;10015;52.530;13.390;2022-09-28T04:42:19;11.00;99.90
19728;DHT22;10015;52.530;13.390;2022-09-28T04:44:48;11.00;99.90
19728;DHT22;10015;52.530;13.390;2022-09-28T04:47:14;10.90;99.90
19728;DHT22;10015;52.530;13.390;2022-09-28T04:49:58;11.00;99.90
19728;DHT22;10015;52.530;13.390;2022-09-28T04:52:29;11.00;99.90
19728;DHT22;10015;52.530;13.390;2022-09-28T04:54:55;11.00;99.90
19728;DHT22;10015;52.530;13.390;2022-09-28T04:57:22;10.90;99.90
19728;DHT22;10015;52.530;13.390;2022-09-28T04:59:48;10.90;99.90
19728;DHT22;10015;52.530;13.390;2022-09-28T05:02:14;10.90;99.90
19728;DHT22;10015;52.530;13.390;2022-09-28T05:04:58;11.00;99.90
19728;DHT22;10015;52.530;13.390;2022-09-28T05:07:34;11.00;99.90
19728;DHT22;10015;52.530;13.390;2022-09-28T05:10:02;11.00;99.90
19728;DHT22;10015;52.530;13.390;2022-09-28T05:12:30;11.00;99.90
19728;DHT22;10015;52.530;13.390;2022-09-28T05:14:56;11.10;99.90
19728;DHT22;10015;52.530;13.390;2022-09-28T05:17:22;11.10;99.90
19728;DHT22;10015;52.530;13.390;2022-09-28T05:19:48;11.10;99.90
19728;DHT22;10015;52.530;13.390;2022-09-28T05:22:13;11.10;99.90
19728;DHT22;10015;52.530;13.390;2022-09-28T05:24:44;11.10;99.90
19728;DHT22;10015;52.530;13.390;2022-09-28T05:27:13;11.10;99.90
19728;DHT22;10015;52.530;13.390;2022-09-28T05:29:39;11.10;99.90
19728;DHT22;10015;52.530;13.390;2022-09-28T05:32:23;11.10;99.90
19728;DHT22;10015;52.530;13.390;2022-09-28T05:35:01;11.10;99.90
19728;DHT22;10015;52.530;13.390;2022-09-28T05:37:38;11.10;99.90
19728;DHT22;10015;52.530;13.390;2022-09-28T05:40:04;11.00;99.90
19728;DHT22;10015;52.530;13.390;2022-09-28T05:42:31;11.00;99.90
19728;DHT22;10015;52.530;13.390;2022-09-28T05:44:57;11.10;99.90
19728;DHT22;10015;52.530;13.390;2022-09-28T05:47:24;11.10;99.90
19728;DHT22;10015;52.530;13.390;2022-09-28T05:49:51;11.10;99.90
19728;DHT22;10015;52.530;13.390;2022-09-28T05:52:17;11.20;99.90
19728;DHT22;10015;52.530;13.390;2022-09-28T05:54:44;11.10;99.90
19728;DHT22;10015;52.530;13.390;2022-09-28T05:57:10;11.10;99.90
19728;DHT22;10015;52.530;13.390;2022-09-28T05:59:36;11.10;99.90
19728;DHT22;10015;52.530;13.390;2022-09-28T06:02:03;11.10;99.90
19728;DHT22;10015;52.530;13.390;2022-09-28T06:04:29;10.90;99.90
19728;DHT22;10015;52.530;13.390;2022-09-28T06:06:55;10.80;99.90
19728;DHT22;10015;52.530;13.390;2022-09-28T06:09:21;10.90;99.90
19728;DHT22;10015;52.530;13.390;2022-09-28T06:12:00;10.80;99.90
19728;DHT22;10015;52.530;13.390;2022-09-28T06:14:37;10.90;99.90
19728;DHT22;10015;52.530;13.390;2022-09-28T06:17:03;11.00;99.90
19728;DHT22;10015;52.530;13.390;2022-09-28T06:19:29;11.20;99.90
19728;DHT22;10015;52.530;13.390;2022-09-28T06:22:06;11.20;99.90
19728;DHT22;10015;52.530;13.390;2022-09-28T06:24:40;11.40;99.90
19728;DHT22;10015;52.530;13.390;2022-09-28T06:27:06;11.50;99.90
19728;DHT22;10015;52.530;13.390;2022-09-28T06:29:32;11.50;99.90
19728;DHT22;10015;52.530;13.390;2022-09-28T06:31:58;11.60;99.90
19728;DHT22;10015;52.530;13.390;2022-09-28T06:34:25;11.60;99.90
19728;DHT22;10015;52.530;13.390;2022-09-28T06:36:51;11.70;99.90
19728;DHT22;10015;52.530;13.390;2022-09-28T06:39:18;11.80;99.90
19728;DHT22;10015;52.530;13.390;2022-09-28T06:41:44;11.90;99.90
19728;DHT22;10015;52.530;13.390;2022-09-28T06:44:13;12.00;99.90
19728;DHT22;10015;52.530;13.390;2022-09-28T06:46:57;12.20;99.90
19728;DHT22;10015;52.530;13.390;2022-09-28T06:49:54;12.30;99.90
19728;DHT22;10015;52.530;13.390;2022-09-28T06:52:26;12.50;99.90
19728;DHT22;10015;52.530;13.390;2022-09-28T06:55:02;12.80;99.90
19728;DHT22;10015;52.530;13.390;2022-09-28T06:57:37;13.10;99.90
19728;DHT22;10015;52.530;13.390;2022-09-28T07:00:04;13.60;99.90
19728;DHT22;10015;52.530;13.390;2022-09-28T07:02:30;14.10;99.90
19728;DHT22;10015;52.530;13.390;2022-09-28T07:05:15;14.50;99.90
19728;DHT22;10015;52.530;13.390;2022-09-28T07:08:01;15.00;99.90
19728;DHT22;10015;52.530;13.390;2022-09-28T07:10:57;15.50;99.90
19728;DHT22;10015;52.530;13.390;2022-09-28T07:13:58;16.00;99.90
19728;DHT22;10015;52.530;13.390;2022-09-28T07:16:24;16.50;99.90
19728;DHT22;10015;52.530;13.390;2022-09-28T07:18:51;16.70;99.90
19728;DHT22;10015;52.530;13.390;2022-09-28T07:21:19;17.00;99.90
19728;DHT22;10015;52.530;13.390;2022-09-28T07:23:46;17.10;99.90
19728;DHT22;10015;52.530;13.390;2022-09-28T07:26:22;17.30;99.90
19728;DHT22;10015;52.530;13.390;2022-09-28T07:28:57;17.50;99.90
19728;DHT22;10015;52.530;13.390;2022-09-28T07:31:42;17.60;99.90
19728;DHT22;10015;52.530;13.390;2022-09-28T07:34:31;17.70;99.90
19728;DHT22;10015;52.530;13.390;2022-09-28T07:37:06;18.00;99.90
19728;DHT22;10015;52.530;13.390;2022-09-28T07:39:33;18.10;99.90
19728;DHT22;10015;52.530;13.390;2022-09-28T07:42:19;18.20;99.90
19728;DHT22;10015;52.530;13.390;2022-09-28T07:44:45;17.90;99.90
19728;DHT22;10015;52.530;13.390;2022-09-28T07:47:11;17.70;99.90
19728;DHT22;10015;52.530;13.390;2022-09-28T07:49:58;17.50;99.90
19728;DHT22;10015;52.530;13.390;2022-09-28T07:52:37;17.60;99.90
19728;DHT22;10015;52.530;13.390;2022-09-28T07:55:18;17.70;99.90
19728;DHT22;10015;52.530;13.390;2022-09-28T07:57:57;17.80;99.90
19728;DHT22;10015;52.530;13.390;2022-09-28T08:00:49;17.80;99.90
19728;DHT22;10015;52.530;13.390;2022-09-28T08:03:17;17.70;99.90
19728;DHT22;10015;52.530;13.390;2022-09-28T08:05:44;17.30;99.90
19728;DHT22;10015;52.530;13.390;2022-09-28T08:08:13;16.80;99.90
19728;DHT22;10015;52.530;13.390;2022-09-28T08:10:41;16.70;99.90
19728;DHT22;10015;52.530;13.390;2022-09-28T08:13:43;16.70;99.90
19728;DHT22;10015;52.530;13.390;2022-09-28T08:16:33;16.50;99.90
19728;DHT22;10015;52.530;13.390;2022-09-28T08:19:12;16.20;99.90
19728;DHT22;10015;52.530;13.390;2022-09-28T08:21:39;16.30;99.90
19728;DHT22;10015;52.530;13.390;2022-09-28T08:24:15;16.10;99.90
19728;DHT22;10015;52.530;13.390;2022-09-28T08:26:43;16.00;99.90
19728;DHT22;10015;52.530;13.390;2022-09-28T08:29:11;16.20;99.90
19728;DHT22;10015;52.530;13.390;2022-09-28T08:31:46;16.30;99.90
19728;DHT22;10015;52.530;13.390;2022-09-28T08:34:32;16.40;99.90
19728;DHT22;10015;52.530;13.390;2022-09-28T08:37:05;16.30;99.90
19728;DHT22;10015;52.530;13.390;2022-09-28T08:40:21;16.20;99.90
19728;DHT22;10015;52.530;13.390;2022-09-28T08:46:47;16.30;99.90
19728;DHT22;10015;52.530;13.390;2022-09-28T08:49:43;16.00;99.90
19728;DHT22;10015;52.530;13.390;2022-09-28T08:52:37;15.90;99.90
19728;DHT22;10015;52.530;13.390;2022-09-28T08:55:27;14.80;99.90
19728;DHT22;10015;52.530;13.390;2022-09-28T08:58:15;14.40;99.90
19728;DHT22;10015;52.530;13.390;2022-09-28T09:00:48;14.10;99.90
19728;DHT22;10015;52.530;13.390;2022-09-28T09:03:36;14.10;99.90
19728;DHT22;10015;52.530;13.390;2022-09-28T09:09:44;14.20;99.90
19728;DHT22;10015;52.530;13.390;2022-09-28T09:12:13;13.60;99.90
19728;DHT22;10015;52.530;13.390;2022-09-28T09:17:45;13.70;99.90
19728;DHT22;10015;52.530;13.390;2022-09-28T09:20:56;13.80;99.90
19728;DHT22;10015;52.530;13.390;2022-09-28T09:24:17;13.60;99.90
19728;DHT22;10015;52.530;13.390;2022-09-28T09:26:42;13.50;99.90
19728;DHT22;10015;52.530;13.390;2022-09-28T09:36:30;13.90;99.90
19728;DHT22;10015;52.530;13.390;2022-09-28T09:45:23;14.50;99.90
19728;DHT22;10015;52.530;13.390;2022-09-28T09:48:18;14.90;99.90
19728;DHT22;10015;52.530;13.390;2022-09-28T09:50:59;15.50;99.90
19728;DHT22;10015;52.530;13.390;2022-09-28T09:53:37;16.00;99.90
19728;DHT22;10015;52.530;13.390;2022-09-28T09:56:15;16.70;99.90
19728;DHT22;10015;52.530;13.390;2022-09-28T09:59:20;16.60;99.90
19728;DHT22;10015;52.530;13.390;2022-09-28T10:02:13;16.70;99.90
19728;DHT22;10015;52.530;13.390;2022-09-28T10:04:55;16.60;99.90
19728;DHT22;10015;52.530;13.390;2022-09-28T10:07:45;16.30;99.90
19728;DHT22;10015;52.530;13.390;2022-09-28T10:12:53;15.40;99.90
19728;DHT22;10015;52.530;13.390;2022-09-28T10:15:24;15.50;99.90
19728;DHT22;10015;52.530;13.390;2022-09-28T10:18:13;15.60;99.90
19728;DHT22;10015;52.530;13.390;2022-09-28T10:20:58;15.50;99.90
19728;DHT22;10015;52.530;13.390;2022-09-28T10:23:42;15.10;99.90
19728;DHT22;10015;52.530;13.390;2022-09-28T10:26:15;15.00;99.90
19728;DHT22;10015;52.530;13.390;2022-09-28T10:29:01;15.00;99.90
19728;DHT22;10015;52.530;13.390;2022-09-28T10:31:46;15.00;99.90
19728;DHT22;10015;52.530;13.390;2022-09-28T10:34:27;15.00;99.90
19728;DHT22;10015;52.530;13.390;2022-09-28T10:36:56;14.90;99.90
19728;DHT22;10015;52.530;13.390;2022-09-28T10:39:45;14.30;99.90
19728;DHT22;10015;52.530;13.390;2022-09-28T10:42:22;14.20;99.90
19728;DHT22;10015;52.530;13.390;2022-09-28T10:44:52;14.50;99.90
19728;DHT22;10015;52.530;13.390;2022-09-28T10:47:48;14.80;99.90
19728;DHT22;10015;52.530;13.390;2022-09-28T10:50:24;14.90;99.90
19728;DHT22;10015;52.530;13.390;2022-09-28T10:53:18;15.10;99.90
19728;DHT22;10015;52.530;13.390;2022-09-28T10:56:18;15.40;99.90
19728;DHT22;10015;52.530;13.390;2022-09-28T10:58:45;15.60;99.90
19728;DHT22;10015;52.530;13.390;2022-09-28T11:01:19;15.40;99.90
19728;DHT22;10015;52.530;13.390;2022-09-28T11:03:58;15.80;99.90
19728;DHT22;10015;52.530;13.390;2022-09-28T11:06:28;15.80;99.90
19728;DHT22;10015;52.530;13.390;2022-09-28T11:08:57;15.50;99.90
19728;DHT22;10015;52.530;13.390;2022-09-28T11:11:27;15.50;99.90
19728;DHT22;10015;52.530;13.390;2022-09-28T11:14:01;15.40;99.90
19728;DHT22;10015;52.530;13.390;2022-09-28T11:16:34;15.70;99.90
19728;DHT22;10015;52.530;13.390;2022-09-28T11:19:04;15.50;99.90
19728;DHT22;10015;52.530;13.390;2022-09-28T11:21:40;15.70;99.90
19728;DHT22;10015;52.530;13.390;2022-09-28T11:24:21;15.80;99.90
19728;DHT22;10015;52.530;13.390;2022-09-28T11:26:51;15.50;99.90
19728;DHT22;10015;52.530;13.390;2022-09-28T11:29:44;15.80;99.90
19728;DHT22;10015;52.530;13.390;2022-09-28T11:32:24;16.10;99.90
19728;DHT22;10015;52.530;13.390;2022-09-28T11:44:39;17.10;99.90
19728;DHT22;10015;52.530;13.390;2022-09-28T11:47:43;16.80;99.90
19728;DHT22;10015;52.530;13.390;2022-09-28T11:56:02;16.70;99.90
19728;DHT22;10015;52.530;13.390;2022-09-28T11:58:33;16.40;99.90
19728;DHT22;10015;52.530;13.390;2022-09-28T12:03:47;16.20;99.90
19728;DHT22;10015;52.530;13.390;2022-09-28T12:06:19;16.30;99.90
19728;DHT22;10015;52.530;13.390;2022-09-28T12:08:56;16.30;99.90
19728;DHT22;10015;52.530;13.390;2022-09-28T12:11:46;16.10;99.90
19728;DHT22;10015;52.530;13.390;2022-09-28T12:14:51;16.00;99.90
19728;DHT22;10015;52.530;13.390;2022-09-28T12:17:22;15.80;99.90
19728;DHT22;10015;52.530;13.390;2022-09-28T12:19:55;15.50;99.90
19728;DHT22;10015;52.530;13.390;2022-09-28T12:22:31;15.40;99.90
19728;DHT22;10015;52.530;13.390;2022-09-28T12:24:58;15.50;99.90
19728;DHT22;10015;52.530;13.390;2022-09-28T12:27:39;15.50;99.90
19728;DHT22;10015;52.530;13.390;2022-09-28T12:30:14;15.50;99.90
19728;DHT22;10015;52.530;13.390;2022-09-28T12:32:59;15.50;99.90
19728;DHT22;10015;52.530;13.390;2022-09-28T12:41:23;15.50;99.90
19728;DHT22;10015;52.530;13.390;2022-09-28T12:49:25;15.50;99.90
19728;DHT22;10015;52.530;13.390;2022-09-28T12:51:56;15.40;99.90
19728;DHT22;10015;52.530;13.390;2022-09-28T12:59:59;15.50;99.90
19728;DHT22;10015;52.530;13.390;2022-09-28T13:16:21;15.60;99.90
19728;DHT22;10015;52.530;13.390;2022-09-28T13:21:35;15.50;99.90
19728;DHT22;10015;52.530;13.390;2022-09-28T13:24:08;15.50;99.90
19728;DHT22;10015;52.530;13.390;2022-09-28T13:26:42;15.60;99.90
19728;DHT22;10015;52.530;13.390;2022-09-28T13:29:15;15.60;99.90
19728;DHT22;10015;52.530;13.390;2022-09-28T13:31:52;15.70;99.90
19728;DHT22;10015;52.530;13.390;2022-09-28T13:34:20;15.80;99.90
19728;DHT22;10015;52.530;13.390;2022-09-28T13:37:27;15.90;99.90
19728;DHT22;10015;52.530;13.390;2022-09-28T13:39:57;15.80;99.90
19728;DHT22;10015;52.530;13.390;2022-09-28T13:45:14;15.40;99.90
19728;DHT22;10015;52.530;13.390;2022-09-28T13:47:51;15.40;99.90
19728;DHT22;10015;52.530;13.390;2022-09-28T13:51:03;15.50;99.90
19728;DHT22;10015;52.530;13.390;2022-09-28T13:53:39;15.10;99.90
19728;DHT22;10015;52.530;13.390;2022-09-28T13:56:35;15.10;99.90
19728;DHT22;10015;52.530;13.390;2022-09-28T13:59:20;15.20;99.90
19728;DHT22;10015;52.530;13.390;2022-09-28T14:02:14;15.40;99.90
19728;DHT22;10015;52.530;13.390;2022-09-28T14:04:56;15.50;99.90
19728;DHT22;10015;52.530;13.390;2022-09-28T14:10:45;14.90;99.90
19728;DHT22;10015;52.530;13.390;2022-09-28T14:16:25;14.90;99.90
19728;DHT22;10015;52.530;13.390;2022-09-28T14:28:02;15.10;99.90
19728;DHT22;10015;52.530;13.390;2022-09-28T14:33:25;15.00;99.90
19728;DHT22;10015;52.530;13.390;2022-09-28T14:36:04;15.10;99.90
19728;DHT22;10015;52.530;13.390;2022-09-28T14:38:50;15.10;99.90
19728;DHT22;10015;52.530;13.390;2022-09-28T14:41:38;15.30;99.90
19728;DHT22;10015;52.530;13.390;2022-09-28T14:44:12;15.50;99.90
19728;DHT22;10015;52.530;13.390;2022-09-28T14:46:45;15.50;99.90
19728;DHT22;10015;52.530;13.390;2022-09-28T14:54:22;15.50;99.90
19728;DHT22;10015;52.530;13.390;2022-09-28T14:59:28;15.30;99.90
19728;DHT22;10015;52.530;13.390;2022-09-28T15:04:51;15.00;99.90
19728;DHT22;10015;52.530;13.390;2022-09-28T15:07:27;15.00;99.90
19728;DHT22;10015;52.530;13.390;2022-09-28T15:09:58;14.90;99.90
19728;DHT22;10015;52.530;13.390;2022-09-28T15:12:30;14.80;99.90
19728;DHT22;10015;52.530;13.390;2022-09-28T15:15:05;14.70;99.90
19728;DHT22;10015;52.530;13.390;2022-09-28T15:17:36;14.70;99.90
19728;DHT22;10015;52.530;13.390;2022-09-28T15:22:44;14.70;99.90
19728;DHT22;10015;52.530;13.390;2022-09-28T15:25:14;14.70;99.90
19728;DHT22;10015;52.530;13.390;2022-09-28T15:27:40;14.70;99.90
19728;DHT22;10015;52.530;13.390;2022-09-28T15:30:28;14.70;99.90
19728;DHT22;10015;52.530;13.390;2022-09-28T15:32:55;14.60;99.90
19728;DHT22;10015;52.530;13.390;2022-09-28T15:35:41;14.60;99.90
19728;DHT22;10015;52.530;13.390;2022-09-28T15:38:14;14.60;99.90
19728;DHT22;10015;52.530;13.390;2022-09-28T15:40:42;14.60;99.90
19728;DHT22;10015;52.530;13.390;2022-09-28T15:45:58;14.70;99.90
19728;DHT22;10015;52.530;13.390;2022-09-28T15:48:36;14.80;99.90
19728;DHT22;10015;52.530;13.390;2022-09-28T15:51:06;14.90;99.90
19728;DHT22;10015;52.530;13.390;2022-09-28T15:54:01;14.80;99.90
19728;DHT22;10015;52.530;13.390;2022-09-28T15:56:30;14.70;99.90
19728;DHT22;10015;52.530;13.390;2022-09-28T16:01:47;14.70;99.90
19728;DHT22;10015;52.530;13.390;2022-09-28T16:12:50;14.60;99.90
19728;DHT22;10015;52.530;13.390;2022-09-28T16:15:32;14.60;99.90
19728;DHT22;10015;52.530;13.390;2022-09-28T16:18:15;14.60;99.90
19728;DHT22;10015;52.530;13.390;2022-09-28T16:20:46;14.60;99.90
19728;DHT22;10015;52.530;13.390;2022-09-28T16:26:54;14.40;99.90
19728;DHT22;10015;52.530;13.390;2022-09-28T16:29:26;14.40;99.90
19728;DHT22;10015;52.530;13.390;2022-09-28T16:31:56;14.40;99.90
19728;DHT22;10015;52.530;13.390;2022-09-28T16:38:09;14.30;99.90
19728;DHT22;10015;52.530;13.390;2022-09-28T16:40:51;14.30;99.90
19728;DHT22;10015;52.530;13.390;2022-09-28T16:43:28;14.20;99.90
19728;DHT22;10015;52.530;13.390;2022-09-28T16:46:03;14.20;99.90
19728;DHT22;10015;52.530;13.390;2022-09-28T16:48:31;14.20;99.90
19728;DHT22;10015;52.530;13.390;2022-09-28T16:50:59;14.10;99.90
19728;DHT22;10015;52.530;13.390;2022-09-28T16:53:25;14.00;99.90
19728;DHT22;10015;52.530;13.390;2022-09-28T16:56:13;13.80;99.90
19728;DHT22;10015;52.530;13.390;2022-09-28T16:58:47;13.70;99.90
19728;DHT22;10015;52.530;13.390;2022-09-28T17:02:04;13.50;99.90
19728;DHT22;10015;52.530;13.390;2022-09-28T17:09:20;13.30;99.90
19728;DHT22;10015;52.530;13.390;2022-09-28T17:12:28;13.30;99.90
19728;DHT22;10015;52.530;13.390;2022-09-28T17:19:44;13.30;99.90
19728;DHT22;10015;52.530;13.390;2022-09-28T17:22:55;13.20;99.90
19728;DHT22;10015;52.530;13.390;2022-09-28T17:26:33;13.10;99.90
19728;DHT22;10015;52.530;13.390;2022-09-28T17:33:54;13.10;99.90
19728;DHT22;10015;52.530;13.390;2022-09-28T17:36:24;13.10;99.90
19728;DHT22;10015;52.530;13.390;2022-09-28T17:38:52;13.20;99.90
19728;DHT22;10015;52.530;13.390;2022-09-28T17:41:19;13.20;99.90
19728;DHT22;10015;52.530;13.390;2022-09-28T17:43:45;13.20;99.90
19728;DHT22;10015;52.530;13.390;2022-09-28T17:46:38;13.20;99.90
19728;DHT22;10015;52.530;13.390;2022-09-28T17:49:09;13.20;99.90
19728;DHT22;10015;52.530;13.390;2022-09-28T17:51:36;13.20;99.90
19728;DHT22;10015;52.530;13.390;2022-09-28T17:54:04;13.30;99.90
19728;DHT22;10015;52.530;13.390;2022-09-28T17:56:30;13.30;99.90
19728;DHT22;10015;52.530;13.390;2022-09-28T17:59:05;13.30;99.90
19728;DHT22;10015;52.530;13.390;2022-09-28T18:01:32;13.30;99.90
19728;DHT22;10015;52.530;13.390;2022-09-28T18:04:00;13.30;99.90
19728;DHT22;10015;52.530;13.390;2022-09-28T18:06:26;13.30;99.90
19728;DHT22;10015;52.530;13.390;2022-09-28T18:08:52;13.30;99.90
19728;DHT22;10015;52.530;13.390;2022-09-28T18:11:18;13.20;99.90
19728;DHT22;10015;52.530;13.390;2022-09-28T18:13:44;13.20;99.90
19728;DHT22;10015;52.530;13.390;2022-09-28T18:16:12;13.20;99.90
19728;DHT22;10015;52.530;13.390;2022-09-28T18:18:38;13.20;99.90
19728;DHT22;10015;52.530;13.390;2022-09-28T18:21:08;13.30;99.90
19728;DHT22;10015;52.530;13.390;2022-09-28T18:23:35;13.20;99.90
19728;DHT22;10015;52.530;13.390;2022-09-28T18:26:01;13.20;99.90
19728;DHT22;10015;52.530;13.390;2022-09-28T18:28:27;13.20;99.90
19728;DHT22;10015;52.530;13.390;2022-09-28T18:30:53;13.20;99.90
19728;DHT22;10015;52.530;13.390;2022-09-28T18:33:19;13.10;99.90
19728;DHT22;10015;52.530;13.390;2022-09-28T18:35:52;13.10;99.90
19728;DHT22;10015;52.530;13.390;2022-09-28T18:38:19;13.10;99.90
19728;DHT22;10015;52.530;13.390;2022-09-28T18:40:46;13.10;99.90
19728;DHT22;10015;52.530;13.390;2022-09-28T18:43:13;13.10;99.90
19728;DHT22;10015;52.530;13.390;2022-09-28T18:45:41;13.00;99.90
19728;DHT22;10015;52.530;13.390;2022-09-28T18:48:07;13.00;99.90
19728;DHT22;10015;52.530;13.390;2022-09-28T18:50:33;13.00;99.90
19728;DHT22;10015;52.530;13.390;2022-09-28T18:52:59;13.00;99.90
19728;DHT22;10015;52.530;13.390;2022-09-28T18:55:37;12.90;99.90
19728;DHT22;10015;52.530;13.390;2022-09-28T18:58:05;13.00;99.90
19728;DHT22;10015;52.530;13.390;2022-09-28T19:00:31;13.00;99.90
19728;DHT22;10015;52.530;13.390;2022-09-28T19:02:59;13.00;99.90
19728;DHT22;10015;52.530;13.390;2022-09-28T19:05:26;13.00;99.90
19728;DHT22;10015;52.530;13.390;2022-09-28T19:07:53;13.00;99.90
19728;DHT22;10015;52.530;13.390;2022-09-28T19:10:19;13.00;99.90
19728;DHT22;10015;52.530;13.390;2022-09-28T19:12:45;13.00;99.90
19728;DHT22;10015;52.530;13.390;2022-09-28T19:15:11;13.00;99.90
19728;DHT22;10015;52.530;13.390;2022-09-28T19:17:37;13.00;99.90
19728;DHT22;10015;52.530;13.390;2022-09-28T19:20:04;13.00;99.90
19728;DHT22;10015;52.530;13.390;2022-09-28T19:22:33;13.00;99.90
19728;DHT22;10015;52.530;13.390;2022-09-28T19:25:04;12.90;99.90
19728;DHT22;10015;52.530;13.390;2022-09-28T19:27:30;12.90;99.90
19728;DHT22;10015;52.530;13.390;2022-09-28T19:29:56;12.90;99.90
19728;DHT22;10015;52.530;13.390;2022-09-28T19:32:22;12.90;99.90
19728;DHT22;10015;52.530;13.390;2022-09-28T19:34:48;12.90;99.90
19728;DHT22;10015;52.530;13.390;2022-09-28T19:37:14;12.80;99.90
19728;DHT22;10015;52.530;13.390;2022-09-28T19:39:40;12.80;99.90
19728;DHT22;10015;52.530;13.390;2022-09-28T19:42:06;12.80;99.90
19728;DHT22;10015;52.530;13.390;2022-09-28T19:44:32;12.80;99.90
19728;DHT22;10015;52.530;13.390;2022-09-28T19:47:05;12.80;99.90
19728;DHT22;10015;52.530;13.390;2022-09-28T19:49:38;12.70;99.90
19728;DHT22;10015;52.530;13.390;2022-09-28T19:52:06;12.70;99.90
19728;DHT22;10015;52.530;13.390;2022-09-28T19:54:34;12.70;99.90
19728;DHT22;10015;52.530;13.390;2022-09-28T19:57:00;12.70;99.90
19728;DHT22;10015;52.530;13.390;2022-09-28T19:59:32;12.70;99.90
19728;DHT22;10015;52.530;13.390;2022-09-28T20:01:58;12.70;99.90
19728;DHT22;10015;52.530;13.390;2022-09-28T20:04:26;12.70;99.90
19728;DHT22;10015;52.530;13.390;2022-09-28T20:06:52;12.70;99.90
19728;DHT22;10015;52.530;13.390;2022-09-28T20:09:18;12.70;99.90
19728;DHT22;10015;52.530;13.390;2022-09-28T20:11:44;12.60;99.90
19728;DHT22;10015;52.530;13.390;2022-09-28T20:14:12;12.60;99.90
19728;DHT22;10015;52.530;13.390;2022-09-28T20:16:43;12.60;99.90
19728;DHT22;10015;52.530;13.390;2022-09-28T20:19:11;12.60;99.90
19728;DHT22;10015;52.530;13.390;2022-09-28T20:21:37;12.60;99.90
19728;DHT22;10015;52.530;13.390;2022-09-28T20:24:04;12.50;99.90
19728;DHT22;10015;52.530;13.390;2022-09-28T20:26:30;12.50;99.90
19728;DHT22;10015;52.530;13.390;2022-09-28T20:29:03;12.50;99.90
19728;DHT22;10015;52.530;13.390;2022-09-28T20:31:29;12.40;99.90
19728;DHT22;10015;52.530;13.390;2022-09-28T20:33:55;12.40;99.90
19728;DHT22;10015;52.530;13.390;2022-09-28T20:36:23;12.40;99.90
19728;DHT22;10015;52.530;13.390;2022-09-28T20:38:52;12.40;99.90
19728;DHT22;10015;52.530;13.390;2022-09-28T20:41:20;12.40;99.90
19728;DHT22;10015;52.530;13.390;2022-09-28T20:43:50;12.40;99.90
19728;DHT22;10015;52.530;13.390;2022-09-28T20:46:18;12.40;99.90
19728;DHT22;10015;52.530;13.390;2022-09-28T20:48:46;12.40;99.90
19728;DHT22;10015;52.530;13.390;2022-09-28T20:51:16;12.40;99.90
19728;DHT22;10015;52.530;13.390;2022-09-28T20:53:49;12.40;99.90
19728;DHT22;10015;52.530;13.390;2022-09-28T20:56:20;12.40;99.90
19728;DHT22;10015;52.530;13.390;2022-09-28T20:58:47;12.40;99.90
19728;DHT22;10015;52.530;13.390;2022-09-28T21:01:21;12.40;99.90
19728;DHT22;10015;52.530;13.390;2022-09-28T21:03:53;12.40;99.90
19728;DHT22;10015;52.530;13.390;2022-09-28T21:06:21;12.40;99.90
19728;DHT22;10015;52.530;13.390;2022-09-28T21:08:48;12.40;99.90
19728;DHT22;10015;52.530;13.390;2022-09-28T21:11:20;12.40;99.90
19728;DHT22;10015;52.530;13.390;2022-09-28T21:13:50;12.40;99.90
19728;DHT22;10015;52.530;13.390;2022-09-28T21:16:16;12.40;99.90
19728;DHT22;10015;52.530;13.390;2022-09-28T21:18:43;12.40;99.90
19728;DHT22;10015;52.530;13.390;2022-09-28T21:21:12;12.50;99.90
19728;DHT22;10015;52.530;13.390;2022-09-28T21:23:41;12.50;99.90
19728;DHT22;10015;52.530;13.390;2022-09-28T21:26:16;12.50;99.90
19728;DHT22;10015;52.530;13.390;2022-09-28T21:28:57;12.50;99.90
19728;DHT22;10015;52.530;13.390;2022-09-28T21:31:25;12.50;99.90
19728;DHT22;10015;52.530;13.390;2022-09-28T21:33:51;12.50;99.90
19728;DHT22;10015;52.530;13.390;2022-09-28T21:36:17;12.50;99.90
19728;DHT22;10015;52.530;13.390;2022-09-28T21:38:43;12.50;99.90
19728;DHT22;10015;52.530;13.390;2022-09-28T21:41:09;12.50;99.90
19728;DHT22;10015;52.530;13.390;2022-09-28T21:43:35;12.50;99.90
19728;DHT22;10015;52.530;13.390;2022-09-28T21:46:02;12.40;99.90
19728;DHT22;10015;52.530;13.390;2022-09-28T21:48:28;12.40;99.90
19728;DHT22;10015;52.530;13.390;2022-09-28T21:51:03;12.40;99.90
19728;DHT22;10015;52.530;13.390;2022-09-28T21:53:31;12.50;99.90
19728;DHT22;10015;52.530;13.390;2022-09-28T21:55:59;12.50;99.90
19728;DHT22;10015;52.530;13.390;2022-09-28T21:58:29;12.50;99.90
19728;DHT22;10015;52.530;13.390;2022-09-28T22:01:07;12.50;99.90
19728;DHT22;10015;52.530;13.390;2022-09-28T22:03:34;12.40;99.90
19728;DHT22;10015;52.530;13.390;2022-09-28T22:06:02;12.50;99.90
19728;DHT22;10015;52.530;13.390;2022-09-28T22:08:28;12.50;99.90
19728;DHT22;10015;52.530;13.390;2022-09-28T22:11:03;12.50;99.90
19728;DHT22;10015;52.530;13.390;2022-09-28T22:13:31;12.50;99.90
19728;DHT22;10015;52.530;13.390;2022-09-28T22:15:57;12.50;99.90
19728;DHT22;10015;52.530;13.390;2022-09-28T22:18:28;12.50;99.90
19728;DHT22;10015;52.530;13.390;2022-09-28T22:21:05;12.50;99.90
19728;DHT22;10015;52.530;13.390;2022-09-28T22:23:32;12.40;99.90
19728;DHT22;10015;52.530;13.390;2022-09-28T22:26:07;12.40;99.90
19728;DHT22;10015;52.530;13.390;2022-09-28T22:28:34;12.40;99.90
19728;DHT22;10015;52.530;13.390;2022-09-28T22:31:00;12.40;99.90
19728;DHT22;10015;52.530;13.390;2022-09-28T22:33:26;12.40;99.90
19728;DHT22;10015;52.530;13.390;2022-09-28T22:35:52;12.40;99.90
19728;DHT22;10015;52.530;13.390;2022-09-28T22:38:21;12.40;99.90
19728;DHT22;10015;52.530;13.390;2022-09-28T22:40:52;12.40;99.90